Time;durP1;ratioP1;P1;durP2;ratioP2;P2;SDS_P1;SDS_P2;PMS_P1;PMS_P2;Temp;Humidity;BMP_temperature;BMP_pressure;BME280_temperature;BME280_humidity;BME280_pressure;Samples;Min_cycle;Max_cycle;Signal;HPM_P1;HPM_P2
2023/10/13 00:02:33;;;;;;;35.40;15.60;;;;;;;17.18;100.00;100138.77;183924;1237;44473;-78
2023/10/13 00:06:37;;;;;;;18.30;10.70;;;;;;;17.22;100.00;100133.46;182922;1236;46089;-78
2023/10/13 00:10:39;;;;;;;13.70;8.40;;;;;;;17.18;100.00;100132.66;183206;1237;45970;-79
2023/10/13 00:14:41;;;;;;;14.20;9.90;;;;;;;17.18;100.00;100131.02;183591;1236;57964;-78
2023/10/13 00:18:46;;;;;;;15.60;9.10;;;;;;;17.17;100.00;100129.21;184837;1236;45993;-79
2023/10/13 00:22:48;;;;;;;17.00;10.60;;;;;;;17.15;100.00;100131.88;184829;1240;44804;-78
2023/10/13 00:26:53;;;;;;;20.00;9.80;;;;;;;17.19;100.00;100134.89;184596;1236;45831;-79
2023/10/13 00:31:10;;;;;;;17.10;9.80;;;;;;;17.22;100.00;100132.76;183896;1236;44008;-78
2023/10/13 00:35:24;;;;;;;21.70;9.60;;;;;;;17.26;100.00;100135.28;183360;1236;58096;-78
2023/10/13 00:39:28;;;;;;;16.50;9.20;;;;;;;17.27;100.00;100137.86;183602;1236;46218;-78
2023/10/13 00:43:32;;;;;;;20.50;11.00;;;;;;;17.21;100.00;100139.31;183358;1236;46105;-78
2023/10/13 00:51:46;;;;;;;19.10;11.50;;;;;;;17.20;100.00;100140.95;183696;1236;45926;-78
2023/10/13 00:55:48;;;;;;;16.80;9.20;;;;;;;17.18;100.00;100134.48;182256;1240;57341;-79
2023/10/13 00:59:53;;;;;;;15.40;10.70;;;;;;;17.16;100.00;100135.96;183528;1237;46056;-78
2023/10/13 01:04:04;;;;;;;17.70;9.50;;;;;;;17.09;100.00;100131.48;182920;1240;46060;-78
2023/10/13 01:08:11;;;;;;;14.20;9.90;;;;;;;17.06;100.00;100132.23;183158;1240;44796;-78
2023/10/13 01:12:14;;;;;;;16.00;10.70;;;;;;;17.04;100.00;100131.46;183766;1239;44741;-78
2023/10/13 01:16:17;;;;;;;15.30;9.80;;;;;;;17.02;100.00;100138.76;182840;1238;59506;-79
2023/10/13 01:20:26;;;;;;;17.20;11.30;;;;;;;17.02;100.00;100144.27;183489;1236;44676;-79
2023/10/13 01:24:34;;;;;;;14.10;10.50;;;;;;;17.10;100.00;100143.77;182983;1240;45850;-78
2023/10/13 01:28:46;;;;;;;13.50;9.50;;;;;;;17.13;100.00;100142.70;183210;1241;46083;-78
2023/10/13 01:32:49;;;;;;;9.90;8.40;;;;;;;17.16;100.00;100145.81;184181;1237;45677;-79
2023/10/13 01:36:53;;;;;;;16.10;8.90;;;;;;;17.17;100.00;100147.42;183877;1238;58686;-79
2023/10/13 01:40:56;;;;;;;13.90;7.20;;;;;;;17.17;100.00;100147.05;184106;1236;46066;-79
2023/10/13 01:45:05;;;;;;;11.50;8.00;;;;;;;17.09;100.00;100144.63;183888;1240;45980;-79
2023/10/13 01:49:08;;;;;;;11.60;7.90;;;;;;;17.02;100.00;100143.53;184467;1240;46141;-79
2023/10/13 01:53:13;;;;;;;13.60;8.70;;;;;;;17.04;100.00;100157.29;182984;1239;46026;-78
2023/10/13 01:57:18;;;;;;;10.60;8.40;;;;;;;17.04;100.00;100156.29;183469;1236;58364;-78
2023/10/13 02:01:26;;;;;;;11.60;7.40;;;;;;;16.98;100.00;100148.96;182628;1238;46154;-78
2023/10/13 02:05:35;;;;;;;13.80;8.00;;;;;;;16.89;100.00;100148.93;183090;1240;46425;-79
2023/10/13 02:09:37;;;;;;;11.80;7.10;;;;;;;16.85;100.00;100153.91;182604;1239;45245;-78
2023/10/13 02:13:48;;;;;;;12.00;6.90;;;;;;;16.86;100.00;100153.83;183351;1238;44261;-79
2023/10/13 02:17:54;;;;;;;11.40;7.50;;;;;;;16.86;100.00;100152.59;182390;1236;57954;-78
2023/10/13 02:21:59;;;;;;;12.10;8.20;;;;;;;16.90;100.00;100159.55;183202;1240;46175;-78
2023/10/13 02:26:03;;;;;;;10.50;7.20;;;;;;;16.91;100.00;100160.15;182228;1240;46316;-79
2023/10/13 02:30:07;;;;;;;9.00;7.30;;;;;;;16.88;100.00;100164.98;185454;1239;44184;-78
2023/10/13 02:34:09;;;;;;;11.80;7.80;;;;;;;16.86;100.00;100164.56;185191;1240;46001;-78
2023/10/13 02:38:11;;;;;;;11.80;8.60;;;;;;;16.83;100.00;100161.33;185865;1236;58041;-78
2023/10/13 02:42:23;;;;;;;12.00;8.10;;;;;;;16.77;100.00;100158.82;183456;1240;46099;-78
2023/10/13 02:46:29;;;;;;;9.90;7.50;;;;;;;16.72;100.00;100154.50;185194;1238;44380;-79
2023/10/13 02:50:33;;;;;;;10.50;7.50;;;;;;;16.73;100.00;100155.67;184351;1240;45884;-79
2023/10/13 02:54:50;;;;;;;12.60;8.50;;;;;;;16.72;100.00;100152.92;183807;1240;46065;-79
2023/10/13 02:59:05;;;;;;;11.60;8.70;;;;;;;16.69;100.00;100156.05;183900;1238;59161;-79
2023/10/13 03:03:07;;;;;;;13.20;8.50;;;;;;;16.63;100.00;100165.11;184149;1237;43949;-79
2023/10/13 03:07:10;;;;;;;12.00;8.20;;;;;;;16.60;100.00;100160.48;183346;1240;45989;-79
2023/10/13 03:11:13;;;;;;;14.70;8.50;;;;;;;16.56;100.00;100161.08;184215;1238;45857;-80
2023/10/13 03:15:21;;;;;;;12.30;9.20;;;;;;;16.49;100.00;100161.65;184285;1237;46047;-79
2023/10/13 03:19:32;;;;;;;13.10;8.50;;;;;;;16.43;100.00;100159.97;184469;1238;58084;-79
2023/10/13 03:23:45;;;;;;;13.50;8.00;;;;;;;16.38;100.00;100160.17;185186;1237;43989;-79
2023/10/13 03:32:06;;;;;;;15.80;8.20;;;;;;;16.25;100.00;100158.02;184383;1238;46010;-80
2023/10/13 03:36:08;;;;;;;14.10;8.40;;;;;;;16.18;100.00;100156.02;183870;1238;46036;-79
2023/10/13 03:44:23;;;;;;;15.20;9.70;;;;;;;16.18;100.00;100160.02;183333;1238;46143;-80
2023/10/13 03:52:29;;;;;;;14.40;9.40;;;;;;;16.29;100.00;100157.52;183493;1238;46123;-80
2023/10/13 03:56:38;;;;;;;15.50;8.50;;;;;;;16.34;100.00;100159.11;182805;1240;45947;-79
2023/10/13 04:00:42;;;;;;;18.90;7.90;;;;;;;16.40;100.00;100157.39;182688;1240;59897;-80
2023/10/13 04:04:54;;;;;;;10.50;8.50;;;;;;;16.45;100.00;100155.98;183679;1240;46079;-80
2023/10/13 04:17:45;;;;;;;8.70;7.70;;;;;;;16.47;100.00;100149.94;182246;1240;46243;-80
2023/10/13 04:21:57;;;;;;;17.20;8.60;;;;;;;16.46;100.00;100145.48;182042;1240;57983;-79
2023/10/13 04:26:08;;;;;;;18.60;10.50;;;;;;;16.41;100.00;100140.98;182777;1238;46128;-79
2023/10/13 04:30:10;;;;;;;8.80;6.60;;;;;;;16.30;100.00;100134.34;183788;1238;46564;-79
2023/10/13 04:34:19;;;;;;;17.60;9.70;;;;;;;16.12;100.00;100123.23;184193;1236;45899;-79
2023/10/13 04:38:32;;;;;;;14.20;7.90;;;;;;;16.06;100.00;100118.84;183262;1240;45973;-79
2023/10/13 04:42:49;;;;;;;12.00;9.10;;;;;;;15.87;100.00;100114.98;184137;1238;59345;-79
2023/10/13 04:51:34;;;;;;;12.40;9.10;;;;;;;15.36;100.00;100110.63;185105;1238;44003;-79
2023/10/13 06:30:24;;;;;;;17.40;14.10;;;;;;;16.71;100.00;100143.02;185371;1237;57986;-80
2023/10/13 06:34:37;;;;;;;16.00;13.80;;;;;;;16.88;100.00;100144.00;183912;1236;44681;-79
2023/10/13 06:38:39;;;;;;;27.40;15.30;;;;;;;17.15;100.00;100146.02;183474;1237;44770;-79
2023/10/13 06:42:43;;;;;;;19.20;15.00;;;;;;;17.52;100.00;100144.64;184804;1236;46008;-80
2023/10/13 06:46:45;;;;;;;18.90;13.00;;;;;;;17.80;100.00;100139.45;184572;1237;44008;-79
2023/10/13 06:50:49;;;;;;;14.60;12.70;;;;;;;17.92;100.00;100145.80;183834;1236;57481;-79
2023/10/13 06:54:53;;;;;;;22.20;14.90;;;;;;;18.10;100.00;100148.86;185711;1237;44902;-79
2023/10/13 06:59:04;;;;;;;18.50;13.50;;;;;;;18.15;100.00;100135.30;183641;1236;46037;-79
2023/10/13 07:03:06;;;;;;;21.40;14.20;;;;;;;18.24;100.00;100139.59;183866;1236;46080;-79
2023/10/13 07:07:10;;;;;;;20.00;14.80;;;;;;;18.29;100.00;100145.85;183543;1237;45942;-79
2023/10/13 07:11:19;;;;;;;22.30;14.50;;;;;;;18.42;100.00;100145.08;183402;1236;58079;-79
2023/10/13 07:15:25;;;;;;;22.50;15.20;;;;;;;18.57;100.00;100138.48;183975;1236;46031;-79
2023/10/13 07:19:28;;;;;;;20.90;13.90;;;;;;;18.70;100.00;100147.39;183826;1239;44801;-79
2023/10/13 07:23:30;;;;;;;17.40;10.70;;;;;;;18.90;100.00;100150.65;183673;1236;46020;-79
2023/10/13 07:27:35;;;;;;;19.20;14.90;;;;;;;19.14;100.00;100153.89;183450;1236;45874;-79
2023/10/13 07:31:38;;;;;;;16.10;12.70;;;;;;;19.45;100.00;100150.07;184240;1236;57985;-79
2023/10/13 07:35:41;;;;;;;13.90;11.40;;;;;;;19.77;100.00;100139.66;183125;1240;46080;-79
2023/10/13 07:39:43;;;;;;;16.30;11.30;;;;;;;20.00;100.00;100136.63;184704;1236;45372;-79
2023/10/13 07:43:45;;;;;;;17.30;12.00;;;;;;;20.25;100.00;100128.85;185053;1236;46029;-79
2023/10/13 07:47:46;;;;;;;22.50;11.30;;;;;;;20.42;100.00;100125.02;184371;1236;43863;-79
2023/10/13 07:51:49;;;;;;;15.00;9.40;;;;;;;20.50;100.00;100127.57;184892;1236;57910;-79
2023/10/13 07:56:02;;;;;;;17.00;10.00;;;;;;;20.59;100.00;100123.91;184808;1236;44731;-79
2023/10/13 08:00:11;;;;;;;14.40;10.40;;;;;;;20.78;100.00;100115.98;184569;1237;46006;-79
2023/10/13 08:04:16;;;;;;;11.80;9.80;;;;;;;20.99;100.00;100117.63;183613;1236;44651;-79
2023/10/13 08:08:18;;;;;;;15.30;8.90;;;;;;;21.05;99.97;100114.72;183910;1240;44070;-80
2023/10/13 08:12:23;;;;;;;14.00;10.20;;;;;;;21.05;99.75;100123.33;183138;1236;58081;-79
2023/10/13 08:16:52;;;;;;;13.90;9.60;;;;;;;21.11;99.82;100125.61;183716;1236;45998;-79
2023/10/13 08:20:54;;;;;;;14.40;9.00;;;;;;;21.11;99.06;100128.27;184714;1240;45049;-80
2023/10/13 08:24:55;;;;;;;13.10;8.40;;;;;;;21.01;98.41;100125.05;183460;1239;46105;-79
2023/10/13 08:33:25;;;;;;;9.30;7.40;;;;;;;21.09;99.72;100120.44;183662;1236;58798;-79
2023/10/13 08:41:31;;;;;;;9.60;8.10;;;;;;;20.95;99.53;100119.15;182641;1236;45957;-79
2023/10/13 08:49:40;;;;;;;9.50;8.00;;;;;;;21.14;100.00;100109.52;184378;1237;46032;-80
2023/10/13 08:54:08;;;;;;;9.00;6.90;;;;;;;21.22;100.00;100107.20;184554;1240;58727;-80
2023/10/13 08:58:14;;;;;;;8.80;6.50;;;;;;;21.24;99.58;100100.80;183513;1236;45774;-79
2023/10/13 09:02:17;;;;;;;9.40;6.80;;;;;;;21.32;100.00;100093.55;183574;1236;45948;-79
2023/10/13 09:06:22;;;;;;;8.00;6.50;;;;;;;21.39;100.00;100088.41;184676;1236;46019;-80
2023/10/13 09:10:33;;;;;;;12.90;7.00;;;;;;;21.42;100.00;100092.05;183742;1236;46098;-79
2023/10/13 09:14:48;;;;;;;8.30;5.60;;;;;;;21.62;100.00;100098.25;184376;1240;58401;-80
2023/10/13 09:18:52;;;;;;;9.30;6.40;;;;;;;21.81;100.00;100096.52;184282;1236;46517;-79
2023/10/13 09:27:04;;;;;;;9.10;7.60;;;;;;;22.08;98.78;100084.40;183749;1240;45989;-80
2023/10/13 09:31:07;;;;;;;10.00;7.50;;;;;;;22.13;96.65;100078.16;184918;1236;45876;-80
2023/10/13 09:35:16;;;;;;;8.00;6.70;;;;;;;22.25;98.88;100080.38;184517;1239;57889;-79
2023/10/13 09:39:29;;;;;;;13.90;9.50;;;;;;;22.35;97.72;100080.79;185712;1236;43937;-80
2023/10/13 09:43:31;;;;;;;15.60;9.30;;;;;;;22.37;97.04;100076.15;184723;1236;46072;-79
2023/10/13 09:47:36;;;;;;;8.00;6.00;;;;;;;22.43;97.63;100074.74;183794;1238;45891;-79
2023/10/13 09:51:41;;;;;;;12.50;6.80;;;;;;;22.56;96.82;100064.17;184717;1236;43922;-79
2023/10/13 09:55:49;;;;;;;10.40;7.70;;;;;;;22.70;97.21;100056.35;184329;1237;57492;-79
2023/10/13 10:00:05;;;;;;;8.40;6.20;;;;;;;22.83;96.67;100049.85;184522;1236;46061;-79
2023/10/13 10:04:09;;;;;;;11.50;6.10;;;;;;;22.94;94.99;100037.60;184174;1236;46045;-79
2023/10/13 10:08:11;;;;;;;8.70;6.00;;;;;;;23.17;96.43;100035.30;184798;1236;45976;-79
2023/10/13 10:12:28;;;;;;;7.00;5.30;;;;;;;23.28;92.82;100032.59;184635;1236;45909;-79
2023/10/13 10:17:03;;;;;;;7.00;6.30;;;;;;;23.34;91.06;100028.15;184417;1236;58626;-79
2023/10/13 10:21:10;;;;;;;9.20;6.30;;;;;;;23.27;90.23;100015.52;184537;1236;44725;-79
2023/10/13 10:25:25;;;;;;;;;;;;;;;23.11;90.73;100005.61;184685;1236;46022;-79
2023/10/13 10:29:27;;;;;;;6.60;5.50;;;;;;;22.97;92.00;100002.11;184178;1236;45861;-79
2023/10/13 10:33:33;;;;;;;8.70;5.90;;;;;;;22.99;94.49;100003.16;184220;1240;46067;-79
2023/10/13 10:37:37;;;;;;;7.70;6.30;;;;;;;23.02;95.25;100001.15;184526;1239;59263;-80
2023/10/13 10:45:59;;;;;;;7.00;6.30;;;;;;;23.01;93.74;99988.37;184204;1236;45938;-80
2023/10/13 10:50:08;;;;;;;10.40;6.60;;;;;;;23.08;93.86;99988.34;184076;1236;46165;-78
2023/10/13 10:54:20;;;;;;;10.10;7.40;;;;;;;23.08;92.34;99984.41;184466;1236;45945;-80
2023/10/13 10:58:30;;;;;;;7.60;6.80;;;;;;;23.10;92.82;99970.64;184813;1236;58118;-79
2023/10/13 11:02:32;;;;;;;6.50;5.20;;;;;;;23.20;95.85;99966.13;184159;1238;44550;-79
2023/10/13 11:06:45;;;;;;;4.70;3.70;;;;;;;23.27;95.50;99958.35;184558;1236;44531;-79
2023/10/13 11:10:47;;;;;;;5.10;3.30;;;;;;;23.31;93.88;99953.81;184495;1236;44644;-79
2023/10/13 11:15:00;;;;;;;5.00;3.50;;;;;;;23.32;92.32;99950.48;184449;1236;44523;-79
2023/10/13 11:19:04;;;;;;;3.70;3.20;;;;;;;23.30;92.87;99948.27;184443;1236;57488;-79
2023/10/13 11:23:13;;;;;;;4.20;3.10;;;;;;;23.33;95.59;99941.86;184709;1236;46177;-80
2023/10/13 11:27:37;;;;;;;10.80;4.40;;;;;;;23.38;94.52;99932.66;184359;1236;45979;-80
2023/10/13 11:31:38;;;;;;;3.60;2.80;;;;;;;23.54;92.89;99928.56;184613;1236;43896;-80
2023/10/13 11:39:54;;;;;;;6.10;4.00;;;;;;;23.63;90.80;99921.52;184488;1236;57903;-79
2023/10/13 11:44:12;;;;;;;5.90;3.60;;;;;;;23.57;90.68;99921.82;184497;1236;46126;-79
2023/10/13 11:48:15;;;;;;;6.40;3.50;;;;;;;23.57;92.82;99916.55;184384;1236;43988;-79
2023/10/13 11:52:17;;;;;;;3.20;3.00;;;;;;;23.60;94.40;99916.02;185044;1236;45948;-79
2023/10/13 11:56:24;;;;;;;4.60;3.50;;;;;;;23.66;95.53;99911.77;184722;1236;45963;-79
2023/10/13 12:00:50;;;;;;;7.30;4.30;;;;;;;23.69;95.69;99907.55;184222;1236;58732;-79
2023/10/13 12:04:57;;;;;;;3.80;3.40;;;;;;;23.66;92.09;99901.45;184582;1240;46018;-79
2023/10/13 12:09:14;;;;;;;4.60;2.70;;;;;;;23.55;92.89;99899.33;184721;1236;44666;-79
2023/10/13 12:13:17;;;;;;;3.80;2.90;;;;;;;23.40;93.29;99893.21;184957;1240;44341;-79
2023/10/13 12:17:25;;;;;;;2.90;2.70;;;;;;;23.31;94.67;99887.56;184728;1236;46109;-79
2023/10/13 12:21:27;;;;;;;3.50;3.20;;;;;;;23.21;95.72;99877.88;184563;1236;58445;-79
2023/10/13 12:29:35;;;;;;;3.60;2.80;;;;;;;23.10;96.87;99874.82;184421;1240;44083;-79
2023/10/13 12:33:36;;;;;;;4.00;3.20;;;;;;;23.10;97.28;99872.53;185129;1236;46006;-79
2023/10/13 12:37:49;;;;;;;7.30;4.20;;;;;;;23.12;96.32;99869.35;184584;1236;43750;-79
2023/10/13 12:50:44;;;;;;;2.90;2.60;;;;;;;22.73;97.10;99855.81;184452;1236;46123;-79
2023/10/13 12:55:06;;;;;;;4.10;3.00;;;;;;;22.57;98.87;99855.27;184932;1240;45964;-79
2023/10/13 12:59:13;;;;;;;6.00;2.50;;;;;;;22.52;99.89;99850.38;184196;1236;46056;-79
2023/10/13 13:03:15;;;;;;;4.80;3.70;;;;;;;22.51;100.00;99845.83;184614;1236;56817;-80
2023/10/13 13:07:17;;;;;;;4.10;2.90;;;;;;;22.48;100.00;99839.96;184141;1236;45101;-79
2023/10/13 13:11:18;;;;;;;5.80;4.90;;;;;;;22.40;100.00;99841.56;184652;1236;45964;-80
2023/10/13 13:15:23;;;;;;;7.10;4.40;;;;;;;22.41;100.00;99836.02;184312;1236;44880;-80
2023/10/13 13:19:25;;;;;;;4.50;4.10;;;;;;;22.41;100.00;99828.43;185497;1236;45706;-80
2023/10/13 13:23:27;;;;;;;5.70;4.20;;;;;;;22.40;100.00;99821.67;184955;1240;59672;-80
2023/10/13 13:27:30;;;;;;;3.90;2.90;;;;;;;22.50;100.00;99824.70;185188;1238;45948;-79
2023/10/13 13:31:32;;;;;;;4.40;3.10;;;;;;;22.57;100.00;99821.04;184453;1240;44677;-79
2023/10/13 13:35:34;;;;;;;5.20;3.40;;;;;;;22.69;100.00;99812.88;184587;1240;45881;-80
2023/10/13 13:39:43;;;;;;;7.50;3.80;;;;;;;22.75;100.00;99804.58;184029;1236;46015;-79
2023/10/13 13:47:54;;;;;;;5.80;3.40;;;;;;;22.78;100.00;99797.30;184680;1236;46003;-80
2023/10/13 13:52:04;;;;;;;5.70;4.10;;;;;;;22.74;100.00;99795.91;184747;1236;46047;-79
2023/10/13 13:56:06;;;;;;;4.40;3.30;;;;;;;22.73;100.00;99790.43;184995;1236;44521;-80
2023/10/13 14:00:17;;;;;;;6.50;3.20;;;;;;;22.69;100.00;99780.85;184486;1239;44510;-79
2023/10/13 14:04:19;;;;;;;6.10;3.70;;;;;;;22.66;100.00;99776.95;185141;1236;59268;-79
2023/10/13 14:08:21;;;;;;;7.00;4.30;;;;;;;22.61;100.00;99776.15;184228;1236;45923;-78
2023/10/13 14:12:29;;;;;;;7.00;4.40;;;;;;;22.55;100.00;99772.35;184583;1236;45699;-80
2023/10/13 14:16:33;;;;;;;7.70;4.30;;;;;;;22.49;100.00;99769.13;184631;1236;44633;-79
2023/10/13 14:20:39;;;;;;;5.60;4.70;;;;;;;22.44;100.00;99757.86;184447;1236;44524;-80
2023/10/13 14:24:47;;;;;;;9.00;5.80;;;;;;;22.39;100.00;99753.47;184832;1236;57979;-79
2023/10/13 14:29:00;;;;;;;6.90;5.40;;;;;;;22.37;100.00;99749.37;184987;1236;43682;-79
2023/10/13 14:33:03;;;;;;;10.80;5.60;;;;;;;22.30;100.00;99745.62;185149;1236;43573;-78
2023/10/13 14:37:13;;;;;;;7.40;5.30;;;;;;;22.23;100.00;99736.23;185119;1236;44074;-80
2023/10/13 14:41:18;;;;;;;7.00;5.50;;;;;;;22.22;100.00;99729.85;184609;1241;44744;-80
2023/10/13 14:45:21;;;;;;;14.80;6.50;;;;;;;22.22;99.77;99727.48;184470;1236;58121;-79
2023/10/13 14:49:23;;;;;;;8.00;4.50;;;;;;;22.14;99.80;99725.48;184767;1236;45964;-79
2023/10/13 14:53:26;;;;;;;8.30;5.40;;;;;;;22.11;100.00;99716.61;184480;1236;45095;-79
2023/10/13 14:57:28;;;;;;;9.30;5.60;;;;;;;22.11;100.00;99721.61;184254;1236;44649;-79
2023/10/13 15:01:32;;;;;;;14.80;6.40;;;;;;;22.15;100.00;99711.94;184894;1236;45925;-79
2023/10/13 15:05:38;;;;;;;13.40;8.20;;;;;;;22.14;100.00;99709.39;185107;1236;58016;-79
2023/10/13 15:09:42;;;;;;;8.90;6.40;;;;;;;22.12;100.00;99704.79;185470;1236;46093;-79
2023/10/13 15:13:45;;;;;;;12.80;8.00;;;;;;;22.12;100.00;99696.45;184505;1236;46073;-79
2023/10/13 15:17:48;;;;;;;11.70;6.60;;;;;;;22.13;100.00;99699.73;184531;1236;45842;-80
2023/10/13 15:21:50;;;;;;;12.10;8.50;;;;;;;22.20;100.00;99698.94;185175;1236;43822;-79
2023/10/13 15:25:52;;;;;;;12.90;8.30;;;;;;;22.24;100.00;99690.98;185750;1236;58238;-80
2023/10/13 15:29:54;;;;;;;9.90;6.30;;;;;;;22.30;100.00;99686.60;184719;1236;46115;-79
2023/10/13 15:33:56;;;;;;;11.90;8.10;;;;;;;22.32;100.00;99687.23;184964;1237;44463;-79
2023/10/13 15:37:58;;;;;;;9.70;6.60;;;;;;;22.25;100.00;99686.84;185327;1237;43866;-79
2023/10/13 15:42:02;;;;;;;12.20;7.50;;;;;;;22.15;100.00;99687.59;185640;1236;43697;-79
2023/10/13 15:46:12;;;;;;;12.20;6.80;;;;;;;22.02;100.00;99680.88;185004;1240;58763;-79
2023/10/13 15:50:40;;;;;;;8.80;5.60;;;;;;;21.88;100.00;99679.98;184866;1236;44558;-80
2023/10/13 15:54:43;;;;;;;6.90;5.30;;;;;;;21.63;100.00;99675.52;184259;1236;45989;-79
2023/10/13 15:58:45;;;;;;;10.10;5.00;;;;;;;21.45;100.00;99667.88;185522;1236;45970;-79
2023/10/13 16:02:50;;;;;;;10.30;5.90;;;;;;;21.23;100.00;99666.44;184924;1236;45958;-79
2023/10/13 16:06:52;;;;;;;11.40;6.00;;;;;;;21.07;100.00;99672.99;184792;1240;58380;-80
2023/10/13 16:11:04;;;;;;;9.90;6.70;;;;;;;20.95;100.00;99674.66;184077;1236;46084;-78
2023/10/13 16:15:13;;;;;;;9.70;5.50;;;;;;;20.87;100.00;99667.12;185852;1236;43158;-79
2023/10/13 16:19:22;;;;;;;9.90;6.20;;;;;;;20.81;100.00;99661.16;185941;1237;43474;-80
2023/10/13 16:23:25;;;;;;;10.10;6.00;;;;;;;20.85;100.00;99656.46;185096;1236;43797;-79
2023/10/13 16:27:26;;;;;;;10.20;5.60;;;;;;;20.82;100.00;99648.89;184994;1236;59240;-79
2023/10/13 16:31:28;;;;;;;12.40;6.60;;;;;;;20.75;100.00;99640.72;184369;1241;46157;-80
2023/10/13 16:35:33;;;;;;;12.30;6.00;;;;;;;20.68;100.00;99641.59;184658;1240;45889;-79
2023/10/13 16:39:39;;;;;;;17.90;6.80;;;;;;;20.67;100.00;99638.82;184591;1238;45951;-79
2023/10/13 16:43:41;;;;;;;13.20;6.70;;;;;;;20.65;100.00;99630.77;184605;1236;43842;-79
2023/10/13 16:47:44;;;;;;;11.20;7.70;;;;;;;20.67;100.00;99626.18;184186;1240;59860;-78
2023/10/13 16:51:46;;;;;;;13.30;9.20;;;;;;;20.71;100.00;99623.23;184278;1237;44122;-79
2023/10/13 16:55:48;;;;;;;12.30;7.60;;;;;;;20.72;100.00;99623.98;184218;1236;43387;-79
2023/10/13 16:59:49;;;;;;;11.70;6.30;;;;;;;20.74;100.00;99621.60;184255;1240;46047;-80
2023/10/13 17:03:52;;;;;;;8.90;6.20;;;;;;;20.76;100.00;99620.14;184225;1240;46440;-79
2023/10/13 17:07:57;;;;;;;11.50;6.50;;;;;;;20.80;100.00;99618.04;184354;1240;58677;-78
2023/10/13 17:12:00;;;;;;;;;;;;;;;20.80;100.00;99616.55;184257;1236;45968;-79
2023/10/13 17:16:11;;;;;;;12.40;5.80;;;;;;;20.81;100.00;99607.36;184159;1236;44460;-78
2023/10/13 17:20:13;;;;;;;12.80;6.70;;;;;;;20.80;100.00;99609.92;183917;1236;46092;-78
2023/10/13 17:24:15;;;;;;;11.20;7.30;;;;;;;20.78;100.00;99608.34;184186;1236;44810;-79
2023/10/13 17:28:17;;;;;;;13.80;7.10;;;;;;;20.79;100.00;99599.41;184071;1237;57874;-80
2023/10/13 17:32:22;;;;;;;10.00;6.10;;;;;;;20.79;100.00;99601.40;184061;1238;45977;-80
2023/10/13 17:36:28;;;;;;;9.50;5.60;;;;;;;20.74;100.00;99606.88;184660;1236;44738;-80
2023/10/13 17:40:29;;;;;;;10.70;6.10;;;;;;;20.73;100.00;99605.51;184326;1236;45950;-80
2023/10/13 17:44:31;;;;;;;11.10;6.00;;;;;;;20.69;100.00;99598.78;184816;1237;44679;-79
2023/10/13 17:48:35;;;;;;;18.60;6.80;;;;;;;20.70;100.00;99594.11;184461;1238;58250;-79
2023/10/13 17:52:36;;;;;;;11.40;6.30;;;;;;;20.76;100.00;99587.27;184410;1240;44671;-78
2023/10/13 17:56:38;;;;;;;10.00;4.70;;;;;;;20.79;100.00;99586.80;184545;1240;46094;-79
2023/10/13 18:00:43;;;;;;;14.50;7.30;;;;;;;20.81;100.00;99581.83;184453;1240;46018;-80
2023/10/13 18:04:45;;;;;;;13.60;6.90;;;;;;;20.87;100.00;99586.06;183999;1236;45991;-79
2023/10/13 18:08:49;;;;;;;10.40;6.80;;;;;;;20.92;100.00;99581.97;184353;1240;57667;-78
2023/10/13 18:12:51;;;;;;;10.20;5.90;;;;;;;20.92;100.00;99579.02;184287;1236;45960;-80
2023/10/13 18:16:54;;;;;;;11.30;5.10;;;;;;;20.98;100.00;99579.84;184132;1236;45930;-80
2023/10/13 18:21:03;;;;;;;7.90;5.90;;;;;;;21.02;100.00;99569.17;184258;1236;46081;-78
2023/10/13 18:25:11;;;;;;;18.50;6.10;;;;;;;21.05;99.92;99561.20;184199;1237;197488;-79
2023/10/13 18:29:14;;;;;;;13.50;6.70;;;;;;;21.10;99.24;99558.55;184175;1236;58142;-80
2023/10/13 18:33:16;;;;;;;9.60;5.40;;;;;;;21.21;98.35;99559.26;184516;1240;45958;-79
2023/10/13 18:37:18;;;;;;;10.40;5.40;;;;;;;21.28;97.95;99553.08;184954;1240;44848;-79
2023/10/13 18:41:22;;;;;;;8.30;5.40;;;;;;;21.32;97.57;99550.73;185042;1237;43838;-79
2023/10/13 18:45:27;;;;;;;9.40;6.20;;;;;;;21.34;97.39;99545.58;185238;1236;44987;-80
2023/10/13 18:49:30;;;;;;;15.20;6.50;;;;;;;21.35;96.95;99541.31;184689;1237;57800;-80
2023/10/13 18:53:34;;;;;;;10.00;5.20;;;;;;;21.35;96.63;99533.33;184149;1237;45694;-79
2023/10/13 18:57:40;;;;;;;8.40;6.10;;;;;;;21.36;96.34;99534.20;184501;1240;44127;-80
2023/10/13 19:01:41;;;;;;;9.50;6.20;;;;;;;21.34;95.60;99530.92;184775;1238;45935;-80
2023/10/13 19:05:44;;;;;;;9.10;5.20;;;;;;;21.35;95.78;99523.97;185495;1240;45912;-80
2023/10/13 19:09:46;;;;;;;7.40;5.80;;;;;;;21.32;95.57;99524.23;184244;1236;58607;-80
2023/10/13 19:13:49;;;;;;;9.60;5.70;;;;;;;21.32;95.66;99517.98;184117;1237;46012;-80
2023/10/13 19:17:52;;;;;;;8.30;4.80;;;;;;;21.31;95.15;99511.63;184799;1237;44022;-79
2023/10/13 19:21:57;;;;;;;8.80;4.90;;;;;;;21.29;94.65;99512.80;184480;1240;45862;-78
2023/10/13 19:25:59;;;;;;;21.70;6.50;;;;;;;21.28;94.18;99515.75;184640;1237;44554;-78
2023/10/13 19:30:06;;;;;;;11.00;5.20;;;;;;;21.25;93.75;99511.08;185174;1237;57850;-79
2023/10/13 19:34:10;;;;;;;10.10;6.30;;;;;;;21.24;93.60;99506.27;184613;1240;45967;-79
2023/10/13 19:38:15;;;;;;;13.60;5.80;;;;;;;21.17;92.70;99503.99;184537;1236;45868;-79
2023/10/13 19:42:20;;;;;;;12.50;4.90;;;;;;;21.18;92.33;99504.40;184464;1240;46107;-79
2023/10/13 19:46:25;;;;;;;17.10;5.80;;;;;;;21.16;91.71;99498.80;184574;1240;44316;-79
2023/10/13 19:50:27;;;;;;;16.40;5.80;;;;;;;21.18;91.36;99494.84;185084;1240;57857;-79
2023/10/13 19:54:29;;;;;;;7.90;5.80;;;;;;;21.15;90.86;99490.23;184320;1238;44596;-80
2023/10/13 19:58:51;;;;;;;8.60;4.70;;;;;;;21.13;90.78;99489.20;184610;1240;45981;-81
2023/10/13 20:02:53;;;;;;;10.80;5.90;;;;;;;21.09;90.42;99485.92;184371;1238;44516;-81
2023/10/13 20:06:55;;;;;;;10.00;4.90;;;;;;;21.08;90.15;99487.19;184079;1237;46169;-79
2023/10/13 20:10:57;;;;;;;15.40;5.60;;;;;;;21.05;89.61;99482.92;183979;1237;59383;-80
2023/10/13 20:14:59;;;;;;;9.40;4.90;;;;;;;21.01;89.62;99475.19;184338;1240;44028;-79
2023/10/13 20:19:01;;;;;;;10.40;4.80;;;;;;;20.96;89.61;99472.52;184712;1238;46072;-80
2023/10/13 20:23:03;;;;;;;11.60;5.70;;;;;;;20.94;89.83;99470.35;184099;1238;44146;-79
2023/10/13 20:27:04;;;;;;;8.30;4.70;;;;;;;20.87;89.77;99466.98;183635;1238;46089;-80
2023/10/13 20:31:06;;;;;;;11.70;5.00;;;;;;;20.80;89.80;99461.24;183694;1240;58061;-80
2023/10/13 20:35:08;;;;;;;13.40;5.60;;;;;;;20.76;90.21;99456.05;184257;1239;43760;-80
2023/10/13 20:39:54;;;;;;;12.80;7.00;;;;;;;20.71;90.14;99456.02;183550;1240;45973;-80
2023/10/13 20:43:38;;;;;;;8.80;4.90;;;;;;;20.68;90.11;99455.86;184354;1240;44996;-80
2023/10/13 20:47:40;;;;;;;8.50;4.70;;;;;;;20.62;90.31;99451.80;183866;1240;43696;-79
2023/10/13 20:51:42;;;;;;;9.20;4.80;;;;;;;20.53;90.58;99444.06;184074;1240;58065;-79
2023/10/13 20:55:46;;;;;;;7.90;5.00;;;;;;;20.47;90.61;99447.91;184317;1237;46087;-79
2023/10/13 20:59:49;;;;;;;11.60;5.20;;;;;;;20.44;90.73;99447.45;184028;1237;46035;-79
2023/10/13 21:03:51;;;;;;;7.50;5.50;;;;;;;20.39;90.75;99436.78;183629;1236;45963;-80
2023/10/13 21:07:54;;;;;;;12.60;4.70;;;;;;;20.32;90.48;99430.57;185648;1236;43963;-80
2023/10/13 21:11:56;;;;;;;6.70;4.80;;;;;;;20.28;90.49;99429.09;184573;1240;59768;-80
2023/10/13 21:15:59;;;;;;;8.80;5.10;;;;;;;20.25;90.98;99424.46;184321;1236;44659;-80
2023/10/13 21:20:04;;;;;;;5.40;4.80;;;;;;;20.21;90.88;99421.15;184162;1240;45844;-79
2023/10/13 21:24:09;;;;;;;10.70;5.80;;;;;;;20.13;90.04;99410.20;183601;1238;45030;-79
2023/10/13 21:28:12;;;;;;;10.20;7.30;;;;;;;20.10;89.73;99400.83;184048;1241;44320;-80